• Join FlightAware (Why Join?)
  • Login
  • US Flag 
07:34AM EDT


 

Airport Tracker/Info


-or-


 

Live Flight TrackerFlight Track Log ✈ RPA3228 ✈ 13-Apr-2013 ✈ KDCA - KBTV

Flight Track Log - Related Links

Times and Time Zones

All times are in EDT time to prevent confusion due to time zone crossing. See the RPA3228 flight status page for this flight to view local times or setup timezone preferences in your user account.

Time Position Orientation Groundspeed Altitude Reporting Facility
EDT Latitude Longitude Course Direction KTS MPH feet Rate Location/Type
10:32AM 38.9000 -77.0667 83° East 177 204 2,200  Level Potomac TRACON
10:33AM 38.9866 -76.6403 67° East  Level FlightAware Approximate
10:33AM 38.9333 -77.1333 303° West 216 249 5,500  Level Potomac TRACON
10:34AM 39.0368 -76.5080 63° Northeast  Level FlightAware Approximate
10:34AM 38.9833 -77.1667 333° Northwest 215 247 8,700  Level Potomac TRACON
10:35AM 39.0906 -76.3775 61° Northeast  Level FlightAware Approximate
10:35AM 39.0333 -77.1000 46° Northeast 328 377 10,100  Level Potomac TRACON
10:36AM 39.1286 -76.2429 57° Northeast  Level FlightAware Approximate
10:37AM 39.1609 -76.1081 83° East  Level FlightAware Approximate
10:37AM 39.0650 -76.8614 80° East 364 419 13,700  Level Washington Center
10:38AM 39.0853 -76.7228 79° East 378 435 15,900 2,100 Climbing Washington Center
10:39AM 39.1053 -76.5814 80° East 395 455 18,000 1,860 Climbing Washington Center
10:40AM 39.1250 -76.4344 80° East 401 461 19,600 1,440 Climbing Washington Center
10:41AM 39.1428 -76.2847 81° East 412 474 20,900 1,320 Climbing Washington Center
10:42AM 39.1686 -76.1083 79° East 432 497 22,300 1,380 Climbing Washington Center
10:43AM 39.1858 -75.9425 82° East 451 519 23,700 1,260 Climbing Washington Center
10:44AM 39.2528 -75.8061 58° Northeast 436 502 24,900 1,140 Climbing Washington Center
10:45AM 39.3447 -75.6828 46° Northeast 450 518 26,000 1,140 Climbing Washington Center
10:46AM 39.4386 -75.5647 44° Northeast 455 524 27,200 1,140 Climbing Washington Center
10:47AM 39.5364 -75.4381 45° Northeast 474 545 28,300 600 Climbing Washington Center
10:49AM 39.7111 -75.2047 46° Northeast 509 586 29,000 180 Climbing New York Center
10:50AM 39.8064 -75.0592 50° Northeast 497 572 29,000  Level New York Center
10:51AM 39.8961 -74.9350 47° Northeast 485 558 29,000  Level New York Center
10:52AM 39.9839 -74.8100 47° Northeast 475 547 29,000  Level New York Center
10:53AM 40.0650 -74.6956 47° Northeast 465 535 29,000  Level New York Center
10:54AM 40.1772 -74.5769 39° Northeast 465 535 29,000  Level New York Center
10:55AM 40.2681 -74.4758 40° Northeast 470 541 29,000  Level New York Center
10:56AM 40.3692 -74.3694 39° Northeast 470 541 29,000  Level New York Center
10:58AM 40.6164 -74.2608 18° North 426 490 29,000  Level Boston Center
10:59AM 40.7481 -74.2317 10° North 426 490 29,000  Level Boston Center
11:00AM 40.8611 -74.1964 13° North 426 490 29,000  Level Boston Center
11:01AM 40.9783 -74.1667 11° North 426 490 29,000  Level Boston Center
11:02AM 41.0892 -74.1339 13° North 426 490 29,000  Level Boston Center
11:03AM 41.2064 -74.1039 11° North 426 490 29,000  Level Boston Center
11:05AM 41.4344 -74.0378 12° North 414 476 29,000  Level Boston Center
11:06AM 41.5475 -74.0072 11° North 414 476 29,000  Level Boston Center
11:07AM 41.6628 -73.9739 12° North 414 476 29,000  Level Boston Center
11:08AM 41.7525 -73.9483 12° North 414 476 29,000  Level Boston Center
11:09AM 41.8822 -73.9153 11° North 408 470 29,000  Level Boston Center
11:10AM 41.9972 -73.8844 11° North 408 470 29,000  Level Boston Center
11:11AM 42.1122 -73.8506 12° North 413 475 29,000  Level Boston Center
11:12AM 42.2253 -73.8194 12° North 413 475 29,000  Level Boston Center
11:13AM 42.3383 -73.7883 11° North 413 475 29,000  Level Boston Center
11:14AM 42.4492 -73.7542 13° North 413 475 29,000  Level Boston Center
11:15AM 42.5619 -73.7256 11° North 413 475 29,000  Level Boston Center
11:16AM 42.6708 -73.6911 13° North 408 470 29,000  Level Boston Center
11:17AM 42.7836 -73.6622 11° North 408 470 29,000  Level Boston Center
11:18AM 42.8881 -73.6275 14° North 400 460 29,000 -600 Level Boston Center
11:19AM 43.0031 -73.5928 12° North 400 460 27,800 -1,440 Descending Boston Center
11:20AM 43.1161 -73.5608 12° North 400 460 25,900 -1,740 Descending Boston Center
11:21AM 43.2561 -73.5206 12° North 418 481 24,000 -960 Descending Boston Center
11:22AM 43.3731 -73.4825 13° North 423 487 24,000 -600 Level Boston Center
11:23AM 43.4922 -73.4475 12° North 428 493 22,900 -2,100 Descending Boston Center
11:24AM 43.6111 -73.4150 11° North 428 493 19,900 -2,940 Descending Boston Center
11:25AM 43.7219 -73.3822 12° North 421 484 17,100 -2,700 Descending Boston Center
11:26AM 43.8286 -73.3494 12° North 395 455 14,600 -2,400 Descending Boston Center
11:27AM 43.9267 -73.3281 North 371 427 12,300 -2,340 Descending Boston Center
11:28AM 44.0225 -73.3236 North 353 406 10,000 -1,560 Descending Boston Center
11:29AM 44.1036 -73.3247 359° North 311 358 9,200 -1,200 Descending Boston Center
11:30AM 44.1786 -73.3433 350° North 278 320 7,600 -1,560 Descending Boston Center
11:31AM 44.2492 -73.3617 349° North 257 296 6,200 -1,440 Descending Boston Center
11:32AM 44.3178 -73.3831 347° North 252 290 4,800 -1,020 Descending Boston Center
11:33AM 44.3844 -73.4017 349° North 252 290 4,200 -420 Descending Boston Center
11:34AM 44.4425 -73.4200 347° North 225 259 4,000 -360 Descending Boston Center
11:35AM 44.4947 -73.4033 13° North 198 228 3,500 -660 Descending Boston Center
11:36AM 44.5389 -73.3692 29° Northeast 189 217 2,800 -660 Descending Boston Center
11:37AM 44.5683 -73.3200 50° Northeast 166 191 2,300 -540 Descending Boston Center